Hlavní strana
METAR-TAF:

METAR-TAF

Letiště :

Taylorville Municipal Airport

Taylorville, Illinois, Spojené státy americké

zeměpisná šířka: 39-32-03N, zeměpisná délka: 089-19-40W, výška: 190 m

Aktuální stav počasí

Zpráva byla vytvořena před 16 minutami, v 23:55 UTC
Jihojihovýchodní vítr 5 kt
Teplota 3°C
Vlhkost vzduchu 70%
Tlak 1025 hPa
Viditelnost: 16.1 km
Jasno

METAR: KTAZ 072355Z AUTO 15005KT 10SM CLR 03/M02 A3026 RMK AO2 T00281023 10066 20028

Čas: 18:11 (00:11 UTC)


TAF: chybějící

Stav a předpovědi počasí z více než 4 000 letišť (zprávy METAR a TAF).

Červené a žluté tečky na mapě představují dostupné meteorologické stanice.

Když kurzor umístíte na tečku, zobrazí se název stanice.

Pak kliknutím zobrazíte stav a předpověď počasí.

Chcete-li změnit mapu, kliknutím na zelené tlačítko se znaménkem +mapu přiblížíte, kliknutím na zelené tlačítko se znaménkem – mapu oddálíte a kliknutím na zelené šipky přejdete na sousední mapy.


METAR-TAF: